Huvudsida
METAR-TAF:

METAR-TAF

Flygplatser :

Caracas, Venezuela

latitud: 10-36N, longitud: 066-59W, höjd: 43 m

Aktuellt väderrapport

Denna rapport gjordes för 56 minuter sedan, klockan 15:00 UTC
Vind 3 kt från sydost
Temperatur 29°C
Fuktighet 70%
Tryck 1010 hPa
Sikt 10 km eller mer
Få moln på en höjd av 1600 ft

METAR: SVMI 161500Z 14003KT 9999 FEW016 29/23 Q1010

Tid: 11:56 (15:56 UTC)

Väderprognos

Denna rapport gjordes för 5 timmar och 56 minuter sedan, klockan 10:00 UTC
Prognos gäller från 16 kl. 12 UTC till 17 kl. 12 UTC
Vind kt från nord
Sikt 10 km eller mer
Få moln på en höjd av 1600 ft
Från 16 kl. 1300 UTC
Vind 6 kt från nordost
Sikt 10 km eller mer
Spridda moln på en höjd av 1600 ft
Blir
från 16 kl. 17 UTC till 16 kl. 22 UTC
Vind 12 kt från nordost
Få moln på en höjd av 1600 ft
Spridda moln på en höjd av 7000 ft

TAF: SVMI 161000Z 1612/1712 00000KT 9999 FEW016 TX32/18Z TN24/08Z FM161300 04006KT 9999 SCT016 BECMG 1617/1622 05012KT FEW016 SCT070

Aktuella väderrapporter och prognoser från 4000 flygplatser (METAR- och TAF-rapporter).

De tillgängliga stationerna syns som gula och röda prickar på kartan.

För musen över prickarna för att se namnen på stationerna.

Klicka sedan för att få väderrapporter och prognoser.

För att ändra kartan: Klicka på de gröna knapparna med ett svart kors på för att zooma in; den gröna knappen med ett streck på för att zooma ut; eller på de gröna pilarna för angränsande kartor.


METAR-TAF: